Riverton, Wyoming
Current Conditions -  °F | °C
As of 9:53 PM on Thursday 30 Oct 2014 (Local Time) from KRIW Reporting Station
Clear Clear  
Wind Chill: 34°   Ceiling: Unl
Heat Index: 40°   Visibility: 10mi
Dew Point: 25°   Wind: 8mph
Humidity: 55%   Direction: 320°NW
Pressure: 30.28"   Gusts: NA
Location:  43.02°N, 108.38°W
Report Text: KRIW 310353Z AUTO 32007KT 10SM CLR 04/M04 A3028 RMK AO2 SLP257 T00441039
Loading
Personal Weather Stations






























Interactive Weather Map
Tropical Storm Tracking
New forecast layout! Learn more

10-Day Weather Forecast

Advertisements
Track Severe Weather on mobile